Time;durP1;ratioP1;P1;durP2;ratioP2;P2;SDS_P1;SDS_P2;PMS_P1;PMS_P2;Temp;Humidity;BMP_temperature;BMP_pressure;BME280_temperature;BME280_humidity;BME280_pressure;Samples;Min_cycle;Max_cycle;Signal;HPM_P1;HPM_P2
2022/11/07 06:00:31;;;;;;;2.43;1.83;;;11.20;97.20;;;;;;1681017;29;20273;-69
2022/11/07 06:01:22;;;;;;;1.73;1.63;;;11.20;97.20;;;;;;1678108;29;20206;-68
2022/11/07 06:02:14;;;;;;;3.90;2.30;;;11.10;97.20;;;;;;1675111;29;20210;-69
2022/11/07 06:03:04;;;;;;;2.17;1.75;;;11.10;97.20;;;;;;1680732;29;20209;-69
2022/11/07 06:03:56;;;;;;;3.40;2.00;;;11.10;97.20;;;;;;1681444;29;20211;-69
2022/11/07 06:04:47;;;;;;;4.20;2.22;;;11.10;97.20;;;;;;1681481;29;20453;-69
2022/11/07 06:05:39;;;;;;;5.27;2.17;;;11.10;97.20;;;;;;1680211;29;20216;-69
2022/11/07 06:06:30;;;;;;;2.70;1.92;;;11.10;97.20;;;;;;1681096;29;20205;-69
2022/11/07 06:07:22;;;;;;;2.20;1.80;;;11.10;97.20;;;;;;1681272;29;20193;-68
2022/11/07 06:08:13;;;;;;;2.22;1.75;;;11.10;97.20;;;;;;1674878;29;20214;-68
2022/11/07 06:09:05;;;;;;;3.28;2.70;;;11.10;97.20;;;;;;1675036;29;20209;-68
2022/11/07 06:09:55;;;;;;;2.28;2.08;;;11.10;97.20;;;;;;1675189;29;20210;-68
2022/11/07 06:10:47;;;;;;;3.33;2.43;;;11.10;97.20;;;;;;1674999;29;20230;-69
2022/11/07 06:11:38;;;;;;;2.58;1.80;;;11.10;97.20;;;;;;1674993;29;20213;-67
2022/11/07 06:12:29;;;;;;;3.20;2.10;;;11.10;97.20;;;;;;1677487;29;20203;-69
2022/11/07 06:13:20;;;;;;;2.13;1.90;;;11.10;97.20;;;;;;1681511;29;20232;-69
2022/11/07 06:14:12;;;;;;;2.30;1.70;;;11.10;97.20;;;;;;1681549;29;20202;-69
2022/11/07 06:15:04;;;;;;;2.00;1.90;;;11.10;97.20;;;;;;1680829;29;20837;-71
2022/11/07 06:15:57;;;;;;;1.92;1.73;;;11.10;97.20;;;;;;1680760;29;20201;-68
2022/11/07 06:16:48;;;;;;;2.05;1.85;;;11.10;97.20;;;;;;1678571;29;20208;-68
2022/11/07 06:17:40;;;;;;;2.10;1.90;;;11.10;97.20;;;;;;1681052;29;20205;-68
2022/11/07 06:18:31;;;;;;;2.60;1.77;;;11.10;97.20;;;;;;1681342;29;20201;-68
2022/11/07 06:19:22;;;;;;;2.87;1.80;;;11.10;97.20;;;;;;1681313;29;20709;-68
2022/11/07 06:20:13;;;;;;;2.58;1.92;;;11.10;97.20;;;;;;1681292;29;20461;-68
2022/11/07 06:21:06;;;;;;;2.63;1.93;;;11.10;97.20;;;;;;1681371;29;20208;-68
2022/11/07 06:21:58;;;;;;;2.08;1.65;;;11.10;97.20;;;;;;1681371;29;20300;-68
2022/11/07 06:22:50;;;;;;;3.60;1.73;;;11.10;97.20;;;;;;1681356;29;20205;-68
2022/11/07 06:23:41;;;;;;;5.35;2.20;;;11.10;97.20;;;;;;1681325;29;20588;-68
2022/11/07 06:24:32;;;;;;;5.50;2.13;;;11.00;97.20;;;;;;1686258;29;20192;-68
2022/11/07 06:25:23;;;;;;;2.88;1.90;;;11.00;97.20;;;;;;1687777;29;20825;-69
2022/11/07 06:26:15;;;;;;;4.03;2.50;;;11.00;97.20;;;;;;1687593;29;20696;-69
2022/11/07 06:27:05;;;;;;;2.53;2.25;;;11.00;97.20;;;;;;1686605;29;20204;-68
2022/11/07 06:28:00;;;;;;;4.20;2.13;;;11.00;97.20;;;;;;1681333;29;20208;-68
2022/11/07 06:28:51;;;;;;;2.83;2.20;;;11.00;97.20;;;;;;1681213;29;20230;-68
2022/11/07 06:29:42;;;;;;;3.50;2.23;;;11.00;97.20;;;;;;1681349;29;20209;-68
2022/11/07 06:30:34;;;;;;;2.28;2.08;;;11.00;97.20;;;;;;1681266;29;20245;-68
2022/11/07 06:31:27;;;;;;;2.25;1.75;;;11.00;97.20;;;;;;1681254;29;20293;-69
2022/11/07 06:32:18;;;;;;;1.70;1.50;;;11.00;97.20;;;;;;1680499;29;20209;-70
2022/11/07 06:33:13;;;;;;;2.10;1.90;;;11.00;97.20;;;;;;1675041;29;20201;-70
2022/11/07 06:34:03;;;;;;;3.95;2.20;;;11.00;97.20;;;;;;1677998;29;20201;-70
2022/11/07 06:34:56;;;;;;;2.92;1.95;;;11.00;97.20;;;;;;1681286;29;20224;-70
2022/11/07 06:35:47;;;;;;;3.72;2.55;;;11.00;97.20;;;;;;1681318;29;20205;-70
2022/11/07 06:36:39;;;;;;;3.13;2.50;;;11.00;97.20;;;;;;1681042;29;20679;-70
2022/11/07 06:37:29;;;;;;;3.10;2.40;;;11.10;97.20;;;;;;1681359;29;20244;-70
2022/11/07 06:38:22;;;;;;;3.83;2.17;;;11.00;97.20;;;;;;1680843;29;20212;-70
2022/11/07 06:39:13;;;;;;;3.70;2.38;;;11.00;97.20;;;;;;1680983;29;20731;-70
2022/11/07 06:40:06;;;;;;;3.13;2.40;;;11.00;97.20;;;;;;1677915;29;20574;-71
2022/11/07 06:41:03;;;;;;;2.88;2.45;;;11.10;97.20;;;;;;1675209;29;20233;-70
2022/11/07 06:41:55;;;;;;;3.45;2.25;;;11.10;97.20;;;;;;1681363;29;20675;-70
2022/11/07 06:42:45;;;;;;;4.13;2.95;;;11.10;97.20;;;;;;1681195;29;20209;-70
2022/11/07 06:43:38;;;;;;;3.60;3.00;;;11.10;97.20;;;;;;1681335;29;20209;-70
2022/11/07 06:44:28;;;;;;;3.25;2.88;;;11.10;97.20;;;;;;1681332;29;20208;-71
2022/11/07 06:45:21;;;;;;;5.40;3.63;;;11.10;97.20;;;;;;1680473;29;20194;-71
2022/11/07 06:46:12;;;;;;;7.60;3.92;;;11.10;97.20;;;;;;1678321;29;20374;-72
2022/11/07 06:47:06;;;;;;;5.05;3.92;;;11.10;97.20;;;;;;1679249;29;20201;-71
2022/11/07 06:47:56;;;;;;;4.30;3.80;;;11.10;97.20;;;;;;1677651;29;20197;-71
2022/11/07 06:48:49;;;;;;;3.70;2.87;;;11.10;97.20;;;;;;1678847;29;20217;-71
2022/11/07 06:49:40;;;;;;;7.32;3.70;;;11.10;97.20;;;;;;1677695;29;20461;-70
2022/11/07 06:50:32;;;;;;;4.90;3.10;;;11.10;97.20;;;;;;1681215;29;20204;-70
2022/11/07 06:51:22;;;;;;;3.55;3.05;;;11.10;97.20;;;;;;1681178;29;20449;-71
2022/11/07 06:52:16;;;;;;;5.53;3.70;;;11.10;97.20;;;;;;1681271;29;20209;-70
2022/11/07 06:53:09;;;;;;;4.65;3.28;;;11.10;97.20;;;;;;1681233;29;20205;-70
2022/11/07 06:54:03;;;;;;;3.45;3.15;;;11.10;97.20;;;;;;1681176;29;20209;-70
2022/11/07 06:54:54;;;;;;;3.72;3.00;;;11.10;97.20;;;;;;1680679;29;20209;-70
2022/11/07 06:55:46;;;;;;;3.30;2.97;;;11.10;97.20;;;;;;1679120;29;20197;-69
2022/11/07 06:56:36;;;;;;;3.90;2.97;;;11.10;97.20;;;;;;1678833;29;20486;-70
2022/11/07 06:57:29;;;;;;;3.70;2.90;;;11.20;97.20;;;;;;1679137;29;20224;-69
2022/11/07 06:58:20;;;;;;;5.38;3.42;;;11.20;97.20;;;;;;1679649;29;20660;-70
2022/11/07 06:59:12;;;;;;;4.17;2.57;;;11.20;97.20;;;;;;1679165;29;20854;-70
2022/11/07 07:00:04;;;;;;;5.18;2.88;;;11.20;97.20;;;;;;1679015;29;20457;-70
2022/11/07 07:01:01;;;;;;;5.28;3.08;;;11.20;97.20;;;;;;1678709;29;20232;-70
2022/11/07 07:01:51;;;;;;;5.00;2.83;;;11.20;97.20;;;;;;1679223;29;20228;-70
2022/11/07 07:02:44;;;;;;;5.63;2.50;;;11.20;97.20;;;;;;1679112;29;20239;-70
2022/11/07 07:03:35;;;;;;;2.13;1.67;;;11.20;97.20;;;;;;1679228;29;20928;-71
2022/11/07 07:04:27;;;;;;;4.07;2.23;;;11.20;97.20;;;;;;1679066;29;20914;-70
2022/11/07 07:05:17;;;;;;;3.55;1.95;;;11.20;97.20;;;;;;1679042;29;20217;-70
2022/11/07 07:06:12;;;;;;;3.13;2.00;;;11.30;97.20;;;;;;1678430;29;20207;-71
2022/11/07 07:07:03;;;;;;;3.33;2.13;;;11.30;97.20;;;;;;1679073;29;20210;-70
2022/11/07 07:07:55;;;;;;;2.60;2.10;;;11.30;97.20;;;;;;1679099;29;20276;-70
2022/11/07 07:08:47;;;;;;;5.95;2.00;;;11.30;97.20;;;;;;1678645;29;20229;-70
2022/11/07 07:09:38;;;;;;;8.23;2.45;;;11.30;97.20;;;;;;1678733;29;20288;-70
2022/11/07 07:10:30;;;;;;;4.72;2.30;;;11.30;97.20;;;;;;1678949;29;20209;-71
2022/11/07 07:11:21;;;;;;;4.90;2.35;;;11.30;97.20;;;;;;1679572;29;20276;-70
2022/11/07 07:12:12;;;;;;;3.58;2.45;;;11.40;97.20;;;;;;1679138;29;20220;-70
2022/11/07 07:13:04;;;;;;;4.07;2.20;;;11.40;97.20;;;;;;1679648;29;20212;-70
2022/11/07 07:13:55;;;;;;;3.83;2.15;;;11.40;97.20;;;;;;1680464;29;20209;-71
2022/11/07 07:14:47;;;;;;;3.70;2.22;;;11.40;97.20;;;;;;1679062;29;20197;-70
2022/11/07 07:15:38;;;;;;;3.40;1.85;;;11.40;97.20;;;;;;1677280;29;20585;-71
2022/11/07 07:16:29;;;;;;;2.92;2.10;;;11.40;97.20;;;;;;1679119;29;20292;-70
2022/11/07 07:17:20;;;;;;;4.10;2.03;;;11.50;97.20;;;;;;1679149;29;20225;-70
2022/11/07 07:18:13;;;;;;;2.93;1.97;;;11.50;97.20;;;;;;1679272;29;20656;-70
2022/11/07 07:19:04;;;;;;;3.60;1.92;;;11.50;97.20;;;;;;1680038;29;20972;-70
2022/11/07 07:19:56;;;;;;;2.13;1.93;;;11.50;97.20;;;;;;1679632;29;20571;-70
2022/11/07 07:20:47;;;;;;;2.83;1.55;;;11.50;97.20;;;;;;1679595;29;20232;-70
2022/11/07 07:21:39;;;;;;;5.93;2.00;;;11.60;97.20;;;;;;1679867;29;20201;-70
2022/11/07 07:22:29;;;;;;;2.95;2.20;;;11.60;97.20;;;;;;1679899;29;20220;-70
2022/11/07 07:23:21;;;;;;;5.57;2.20;;;11.60;97.20;;;;;;1679590;29;20196;-70
2022/11/07 07:24:12;;;;;;;4.32;2.17;;;11.60;97.20;;;;;;1680252;29;20244;-70
2022/11/07 07:25:05;;;;;;;5.38;2.50;;;11.60;97.20;;;;;;1680647;29;20239;-70
2022/11/07 07:25:55;;;;;;;3.70;2.30;;;11.60;97.20;;;;;;1679280;29;20225;-70
2022/11/07 07:26:47;;;;;;;3.77;2.00;;;11.70;97.20;;;;;;1679420;29;20217;-70
2022/11/07 07:27:38;;;;;;;3.08;1.90;;;11.70;97.20;;;;;;1679288;29;20246;-70
2022/11/07 07:28:30;;;;;;;4.60;1.67;;;11.70;97.20;;;;;;1679572;29;20195;-70
2022/11/07 07:29:20;;;;;;;6.75;1.80;;;11.70;97.20;;;;;;1679882;29;20197;-70
2022/11/07 07:30:13;;;;;;;3.63;1.63;;;11.70;97.20;;;;;;1680804;29;20197;-70
2022/11/07 07:31:09;;;;;;;3.80;1.98;;;11.70;97.20;;;;;;1680996;29;20690;-70
2022/11/07 07:32:01;;;;;;;4.90;2.30;;;11.70;97.20;;;;;;1679993;29;20209;-70
2022/11/07 07:32:52;;;;;;;4.28;1.65;;;11.80;97.20;;;;;;1680394;29;20201;-70
2022/11/07 07:33:47;;;;;;;4.80;1.77;;;11.80;97.20;;;;;;1680360;29;20205;-70
2022/11/07 07:34:37;;;;;;;5.05;1.70;;;11.80;97.20;;;;;;1680094;29;20205;-70
2022/11/07 07:35:29;;;;;;;2.77;1.50;;;11.80;97.20;;;;;;1680362;29;20209;-71
2022/11/07 07:36:20;;;;;;;6.03;2.00;;;11.80;97.20;;;;;;1679858;29;20220;-71
2022/11/07 07:37:12;;;;;;;6.30;1.80;;;11.80;97.20;;;;;;1680114;29;20224;-69
2022/11/07 07:38:02;;;;;;;5.60;1.88;;;11.90;97.20;;;;;;1680434;29;20427;-70
2022/11/07 07:38:54;;;;;;;5.33;1.47;;;11.90;97.20;;;;;;1680409;29;20212;-70
2022/11/07 07:39:45;;;;;;;3.80;1.95;;;11.90;97.20;;;;;;1679928;29;20205;-70
2022/11/07 07:40:36;;;;;;;4.10;1.73;;;11.90;97.20;;;;;;1680175;29;20224;-70
2022/11/07 07:41:27;;;;;;;2.33;1.70;;;12.00;97.20;;;;;;1679811;29;20209;-70
2022/11/07 07:42:19;;;;;;;2.70;1.80;;;12.00;97.20;;;;;;1680359;29;20205;-70
2022/11/07 07:43:10;;;;;;;3.25;1.73;;;12.00;97.20;;;;;;1680346;29;20217;-70
2022/11/07 07:44:01;;;;;;;5.70;2.03;;;12.00;97.20;;;;;;1680501;29;20293;-70
2022/11/07 07:44:52;;;;;;;7.20;1.67;;;12.10;97.20;;;;;;1680382;29;20210;-70
2022/11/07 07:45:44;;;;;;;4.93;2.03;;;12.10;97.20;;;;;;1680216;29;20213;-70
2022/11/07 07:46:35;;;;;;;4.15;1.88;;;12.10;97.20;;;;;;1679903;29;20198;-69
2022/11/07 07:47:26;;;;;;;4.60;1.73;;;12.10;97.20;;;;;;1680097;29;20210;-70
2022/11/07 07:48:17;;;;;;;3.58;2.20;;;12.20;97.20;;;;;;1680094;29;20209;-70
2022/11/07 07:49:10;;;;;;;5.70;1.80;;;12.20;97.20;;;;;;1679744;29;20324;-70
2022/11/07 07:50:01;;;;;;;2.72;1.58;;;12.20;97.20;;;;;;1680077;29;20208;-69
2022/11/07 07:50:53;;;;;;;2.70;1.70;;;12.20;97.20;;;;;;1680790;29;20225;-71
2022/11/07 07:51:43;;;;;;;5.78;2.20;;;12.20;97.20;;;;;;1679677;29;20295;-70
2022/11/07 07:52:35;;;;;;;2.90;1.70;;;12.30;97.20;;;;;;1680288;29;20299;-70
2022/11/07 07:53:26;;;;;;;5.78;1.90;;;12.30;97.20;;;;;;1679728;29;20205;-70
2022/11/07 07:54:17;;;;;;;5.60;1.60;;;12.30;97.20;;;;;;1680147;29;20201;-70
2022/11/07 07:55:10;;;;;;;3.78;1.90;;;12.30;97.20;;;;;;1679898;29;20458;-71
2022/11/07 07:56:04;;;;;;;4.88;1.83;;;12.30;97.20;;;;;;1680100;29;20269;-70
2022/11/07 07:56:55;;;;;;;3.40;1.75;;;12.40;97.20;;;;;;1679884;29;20273;-70
2022/11/07 07:57:47;;;;;;;3.93;1.70;;;12.40;97.20;;;;;;1680726;29;20201;-70
2022/11/07 07:58:37;;;;;;;3.85;1.80;;;12.40;97.20;;;;;;1679763;29;20209;-70
2022/11/07 07:59:29;;;;;;;3.40;2.40;;;12.50;97.20;;;;;;1680579;29;20209;-70
2022/11/07 08:00:21;;;;;;;3.70;2.00;;;12.50;97.20;;;;;;1680009;29;20209;-71
2022/11/07 08:01:12;;;;;;;4.80;2.20;;;12.50;97.20;;;;;;1679822;29;20212;-70
2022/11/07 08:02:03;;;;;;;2.75;1.48;;;12.50;97.20;;;;;;1679567;29;20210;-71
2022/11/07 08:03:00;;;;;;;2.90;1.70;;;12.50;97.20;;;;;;1680020;29;20201;-71
2022/11/07 08:03:51;;;;;;;4.43;1.95;;;12.50;97.20;;;;;;1680493;29;20216;-71
2022/11/07 08:04:44;;;;;;;3.53;1.90;;;12.50;97.20;;;;;;1680082;29;20209;-71
2022/11/07 08:05:36;;;;;;;3.72;1.88;;;12.50;97.20;;;;;;1679893;29;20209;-71
2022/11/07 08:06:28;;;;;;;4.53;2.05;;;12.50;97.20;;;;;;1679556;29;20200;-71
2022/11/07 08:07:19;;;;;;;5.35;2.30;;;12.50;97.20;;;;;;1679796;29;20589;-71
2022/11/07 08:08:10;;;;;;;3.03;1.80;;;12.50;97.20;;;;;;1679943;29;20219;-71
2022/11/07 08:09:01;;;;;;;4.03;1.83;;;12.50;97.20;;;;;;1679749;29;20209;-71
2022/11/07 08:09:53;;;;;;;4.67;1.60;;;12.50;97.20;;;;;;1679921;29;20205;-70
2022/11/07 08:10:44;;;;;;;3.72;2.08;;;12.50;97.20;;;;;;1680182;29;20492;-70
2022/11/07 08:11:36;;;;;;;7.25;2.10;;;12.50;97.20;;;;;;1679970;29;20221;-71
2022/11/07 08:12:27;;;;;;;3.17;1.70;;;12.50;97.20;;;;;;1679643;29;20605;-71
2022/11/07 08:13:19;;;;;;;6.43;2.17;;;12.50;97.20;;;;;;1680007;29;20558;-71
2022/11/07 08:14:10;;;;;;;5.55;1.92;;;12.50;97.20;;;;;;1679873;29;20224;-71
2022/11/07 08:15:02;;;;;;;2.97;1.70;;;12.50;97.20;;;;;;1680007;29;20206;-71
2022/11/07 08:15:52;;;;;;;4.35;1.80;;;12.50;97.20;;;;;;1679389;29;20197;-71
2022/11/07 08:16:44;;;;;;;2.93;1.83;;;12.50;97.20;;;;;;1679680;29;20215;-71
2022/11/07 08:17:35;;;;;;;4.40;1.88;;;12.50;97.20;;;;;;1680403;29;20209;-71
2022/11/07 08:18:27;;;;;;;2.60;1.60;;;12.50;97.20;;;;;;1680025;29;20682;-71
2022/11/07 08:19:17;;;;;;;4.72;1.75;;;12.50;97.20;;;;;;1679774;29;20223;-71
2022/11/07 08:20:13;;;;;;;3.13;1.63;;;12.50;97.20;;;;;;1680024;29;20201;-71
2022/11/07 08:21:04;;;;;;;3.30;1.85;;;12.50;97.20;;;;;;1679848;29;20580;-71
2022/11/07 08:21:55;;;;;;;5.50;2.20;;;12.50;97.20;;;;;;1679645;29;20206;-71
2022/11/07 08:22:47;;;;;;;5.47;1.83;;;12.50;97.20;;;;;;1679843;29;20209;-70
2022/11/07 08:23:39;;;;;;;1.80;1.40;;;12.50;97.20;;;;;;1679686;29;20205;-70
2022/11/07 08:24:29;;;;;;;3.40;1.90;;;12.50;97.20;;;;;;1679827;29;20706;-71
2022/11/07 08:25:21;;;;;;;3.83;1.50;;;12.50;97.20;;;;;;1679870;29;20835;-71
2022/11/07 08:26:12;;;;;;;8.80;1.85;;;12.50;97.20;;;;;;1679559;29;20205;-71
2022/11/07 08:27:03;;;;;;;2.90;1.60;;;12.50;97.20;;;;;;1679819;29;20205;-71
2022/11/07 08:27:54;;;;;;;2.95;1.42;;;12.50;97.20;;;;;;1679947;29;20205;-70
2022/11/07 08:28:46;;;;;;;2.40;1.40;;;12.50;97.20;;;;;;1679778;29;20202;-71
2022/11/07 08:29:37;;;;;;;3.30;1.70;;;12.50;97.20;;;;;;1679645;29;20699;-70
2022/11/07 08:30:30;;;;;;;7.37;1.60;;;12.50;97.20;;;;;;1680270;29;20197;-71
2022/11/07 08:31:22;;;;;;;7.00;1.60;;;12.50;97.20;;;;;;1679887;29;20205;-70
2022/11/07 08:32:14;;;;;;;5.15;1.83;;;12.50;97.20;;;;;;1679691;29;20217;-70
2022/11/07 08:33:05;;;;;;;4.20;1.60;;;12.50;97.20;;;;;;1679549;29;20209;-71
2022/11/07 08:33:57;;;;;;;4.53;1.80;;;12.50;97.20;;;;;;1679718;29;20220;-71
2022/11/07 08:34:49;;;;;;;5.07;1.63;;;12.50;97.20;;;;;;1679789;29;20676;-71
2022/11/07 08:35:41;;;;;;;7.22;1.60;;;12.50;97.20;;;;;;1679889;29;20693;-71
2022/11/07 08:36:33;;;;;;;4.95;1.70;;;12.50;97.20;;;;;;1680468;29;20260;-70
2022/11/07 08:37:24;;;;;;;3.65;1.75;;;12.50;97.20;;;;;;1680166;29;20584;-70
2022/11/07 08:38:16;;;;;;;2.83;1.37;;;12.50;97.20;;;;;;1679673;29;20601;-71
2022/11/07 08:39:07;;;;;;;3.00;1.70;;;12.50;97.20;;;;;;1679825;29;20449;-71
2022/11/07 08:39:58;;;;;;;3.92;1.35;;;12.60;97.20;;;;;;1679864;29;20626;-71
2022/11/07 08:40:50;;;;;;;4.17;1.50;;;12.50;97.20;;;;;;1679522;29;20569;-71
2022/11/07 08:41:41;;;;;;;3.53;1.40;;;12.60;97.20;;;;;;1679771;29;20261;-71
2022/11/07 08:42:32;;;;;;;8.60;2.33;;;12.60;97.20;;;;;;1679975;29;20253;-71
2022/11/07 08:43:23;;;;;;;7.15;1.80;;;12.60;97.20;;;;;;1680082;29;20205;-71
2022/11/07 08:44:15;;;;;;;4.63;1.90;;;12.60;97.20;;;;;;1679999;29;20201;-71
2022/11/07 08:45:07;;;;;;;3.75;1.58;;;12.60;97.20;;;;;;1679518;29;20201;-71
2022/11/07 08:45:59;;;;;;;3.95;1.50;;;12.50;97.20;;;;;;1679902;29;20213;-71
2022/11/07 08:46:52;;;;;;;7.10;1.70;;;12.50;97.20;;;;;;1679364;29;20232;-70
2022/11/07 08:47:43;;;;;;;2.35;1.42;;;12.50;97.20;;;;;;1679644;29;20743;-70
2022/11/07 08:48:34;;;;;;;3.72;1.80;;;12.60;97.20;;;;;;1679855;29;20205;-71
2022/11/07 08:49:26;;;;;;;4.47;1.60;;;12.60;97.20;;;;;;1679753;29;20227;-71
2022/11/07 08:50:17;;;;;;;3.75;1.70;;;12.60;97.20;;;;;;1680275;29;20205;-71
2022/11/07 08:51:10;;;;;;;4.97;1.60;;;12.60;97.20;;;;;;1679772;29;20201;-71
2022/11/07 08:52:01;;;;;;;3.33;1.90;;;12.60;97.20;;;;;;1679959;29;20197;-71
2022/11/07 08:52:53;;;;;;;4.33;1.87;;;12.60;97.20;;;;;;1679836;29;20656;-71
2022/11/07 08:53:43;;;;;;;3.58;1.60;;;12.70;97.20;;;;;;1679270;29;20204;-70
2022/11/07 08:54:35;;;;;;;6.83;2.03;;;12.60;97.20;;;;;;1679494;29;20698;-70
2022/11/07 08:55:26;;;;;;;3.50;1.42;;;12.60;97.20;;;;;;1679766;29;20201;-70
2022/11/07 08:56:17;;;;;;;3.37;1.37;;;12.70;97.20;;;;;;1680004;29;20206;-70
2022/11/07 08:57:09;;;;;;;4.38;1.90;;;12.70;97.20;;;;;;1679858;29;20461;-70
2022/11/07 08:58:02;;;;;;;3.03;1.58;;;12.70;97.20;;;;;;1679476;29;20558;-70
2022/11/07 08:58:52;;;;;;;3.83;1.70;;;12.70;97.20;;;;;;1679549;29;20205;-70
2022/11/07 08:59:44;;;;;;;5.03;1.80;;;12.70;97.20;;;;;;1679720;29;20284;-71
2022/11/07 09:00:35;;;;;;;3.33;1.50;;;12.80;97.20;;;;;;1679718;29;20827;-70
2022/11/07 09:01:27;;;;;;;10.27;1.88;;;12.80;97.20;;;;;;1679432;29;20209;-70
2022/11/07 09:02:18;;;;;;;6.13;1.60;;;12.80;97.20;;;;;;1679680;29;20209;-70
2022/11/07 09:03:11;;;;;;;3.70;1.90;;;12.90;97.20;;;;;;1680359;29;20208;-70
2022/11/07 09:04:02;;;;;;;3.20;1.73;;;12.90;97.20;;;;;;1679663;29;20250;-70
2022/11/07 09:04:53;;;;;;;3.22;1.80;;;13.00;97.20;;;;;;1679695;29;20281;-70
2022/11/07 09:05:44;;;;;;;4.45;1.80;;;13.00;97.20;;;;;;1679361;29;20217;-70
2022/11/07 09:06:54;;;;;;;5.97;1.97;;;13.00;97.20;;;;;;1679490;29;20252;-71
2022/11/07 09:07:45;;;;;;;3.42;1.77;;;13.10;97.20;;;;;;1678841;29;20214;-70
2022/11/07 09:08:37;;;;;;;2.73;1.60;;;13.10;97.20;;;;;;1679876;29;20288;-70
2022/11/07 09:09:28;;;;;;;3.60;1.30;;;13.10;97.20;;;;;;1680270;29;20319;-70
2022/11/07 09:10:20;;;;;;;5.30;1.33;;;13.20;97.20;;;;;;1679532;29;20201;-70
2022/11/07 09:11:14;;;;;;;2.65;1.30;;;13.20;97.20;;;;;;1679307;29;20201;-70
2022/11/07 09:12:05;;;;;;;4.78;1.40;;;13.20;97.20;;;;;;1679550;29;20241;-71
2022/11/07 09:12:57;;;;;;;3.72;1.55;;;13.30;97.20;;;;;;1679355;29;20253;-70
2022/11/07 09:13:48;;;;;;;2.55;1.67;;;13.30;97.20;;;;;;1680111;29;20206;-70
2022/11/07 09:14:39;;;;;;;3.63;1.70;;;13.30;97.20;;;;;;1679569;29;20201;-70
2022/11/07 09:15:30;;;;;;;4.20;2.28;;;13.30;97.20;;;;;;1679495;29;20660;-70
2022/11/07 09:16:23;;;;;;;9.83;1.97;;;13.30;97.20;;;;;;1679746;29;20577;-70
2022/11/07 09:17:14;;;;;;;4.97;1.85;;;13.30;97.20;;;;;;1679275;29;20458;-69
2022/11/07 09:18:06;;;;;;;6.03;1.80;;;13.40;97.20;;;;;;1679236;29;20205;-71
2022/11/07 09:18:57;;;;;;;3.45;1.45;;;13.40;97.20;;;;;;1679593;29;20205;-70
2022/11/07 09:19:48;;;;;;;3.47;1.93;;;13.40;97.20;;;;;;1679722;29;20194;-69
2022/11/07 09:20:39;;;;;;;2.45;1.55;;;13.40;97.20;;;;;;1679526;29;20732;-70
2022/11/07 09:21:31;;;;;;;2.60;1.50;;;13.40;97.20;;;;;;1679599;29;20675;-70
2022/11/07 09:22:23;;;;;;;2.90;1.58;;;13.50;97.20;;;;;;1679673;29;20687;-69
2022/11/07 09:23:15;;;;;;;2.83;1.35;;;13.50;97.20;;;;;;1680094;29;20229;-70
2022/11/07 09:24:07;;;;;;;5.45;2.05;;;13.50;97.20;;;;;;1679317;29;20244;-70
2022/11/07 09:24:58;;;;;;;3.70;1.60;;;13.50;97.20;;;;;;1679241;29;20201;-71
2022/11/07 09:25:50;;;;;;;3.57;1.70;;;13.60;97.20;;;;;;1679435;29;20205;-70
2022/11/07 09:26:41;;;;;;;3.58;1.83;;;13.60;97.20;;;;;;1679495;29;20205;-71
2022/11/07 09:27:32;;;;;;;5.83;1.73;;;13.60;97.20;;;;;;1679650;29;20201;-71
2022/11/07 09:28:23;;;;;;;3.45;1.40;;;13.60;97.20;;;;;;1679240;29;20202;-71
2022/11/07 09:29:15;;;;;;;4.60;1.53;;;13.60;97.20;;;;;;1680022;29;20216;-70
2022/11/07 09:30:07;;;;;;;3.92;1.60;;;13.60;97.20;;;;;;1679460;29;20230;-70
2022/11/07 09:31:00;;;;;;;5.25;2.00;;;13.70;97.20;;;;;;1679317;29;20229;-70
2022/11/07 09:31:50;;;;;;;4.72;2.63;;;13.70;97.20;;;;;;1679399;29;20213;-70
2022/11/07 09:32:42;;;;;;;5.90;1.70;;;13.70;97.20;;;;;;1679636;29;20231;-71
2022/11/07 09:33:33;;;;;;;4.47;1.90;;;13.70;97.20;;;;;;1679412;29;20208;-70
2022/11/07 09:34:24;;;;;;;2.80;1.60;;;13.80;97.20;;;;;;1679528;29;20216;-70
2022/11/07 09:35:15;;;;;;;2.47;1.40;;;13.80;97.20;;;;;;1678534;29;20707;-70
2022/11/07 09:36:07;;;;;;;5.20;1.97;;;13.80;97.20;;;;;;1679701;29;20564;-71
2022/11/07 09:36:58;;;;;;;4.78;1.85;;;13.90;97.20;;;;;;1679112;29;20213;-70
2022/11/07 09:37:51;;;;;;;3.90;1.73;;;13.90;97.20;;;;;;1679462;29;20209;-70
2022/11/07 09:38:42;;;;;;;3.00;1.42;;;14.00;97.20;;;;;;1679156;29;20197;-70
2022/11/07 09:39:34;;;;;;;3.25;1.60;;;14.00;97.20;;;;;;1679456;29;20237;-70
2022/11/07 09:40:39;;;;;;;2.40;1.45;;;14.00;97.20;;;;;;1679817;29;20209;-70
2022/11/07 09:41:41;;;;;;;4.30;1.55;;;14.00;97.20;;;;;;1679367;29;20718;-70
2022/11/07 09:42:41;;;;;;;5.05;1.88;;;14.00;97.20;;;;;;1680181;29;20208;-70
2022/11/07 09:43:47;;;;;;;4.40;1.60;;;14.00;97.20;;;;;;1679425;29;20193;-71
2022/11/07 09:44:54;;;;;;;7.32;1.63;;;13.90;97.20;;;;;;1679499;29;20216;-70
2022/11/07 09:45:55;;;;;;;3.33;1.70;;;13.90;97.20;;;;;;1679188;29;20682;-70
2022/11/07 09:46:54;;;;;;;5.28;1.30;;;13.90;97.20;;;;;;1678795;29;20217;-71
2022/11/07 09:47:51;;;;;;;5.97;2.00;;;13.90;97.20;;;;;;1679224;29;20205;-71
2022/11/07 09:48:46;;;;;;;3.58;1.40;;;13.80;97.20;;;;;;1679723;29;20210;-71
2022/11/07 09:49:42;;;;;;;3.72;1.50;;;13.80;97.20;;;;;;1679555;29;20290;-70
2022/11/07 09:50:37;;;;;;;3.08;1.17;;;13.80;97.20;;;;;;1679247;29;20716;-70
2022/11/07 09:51:34;;;;;;;3.47;1.42;;;13.80;97.20;;;;;;1679409;29;20205;-70
2022/11/07 09:52:35;;;;;;;6.28;2.03;;;13.70;97.20;;;;;;1679394;29;20206;-70
2022/11/07 09:53:33;;;;;;;4.93;1.50;;;13.70;97.20;;;;;;1679401;29;20253;-70
2022/11/07 09:54:28;;;;;;;3.03;1.42;;;13.70;97.20;;;;;;1679277;29;20218;-70
2022/11/07 09:55:25;;;;;;;3.45;1.60;;;13.70;97.20;;;;;;1679770;29;20205;-70
2022/11/07 09:56:16;;;;;;;4.47;1.40;;;13.70;97.20;;;;;;1679191;29;20205;-69
2022/11/07 09:57:10;;;;;;;5.37;1.60;;;13.60;97.20;;;;;;1679081;29;20210;-70
2022/11/07 09:58:06;;;;;;;4.63;1.42;;;13.60;97.20;;;;;;1679027;29;20469;-70
2022/11/07 09:59:01;;;;;;;5.05;1.50;;;13.60;97.20;;;;;;1679350;29;20208;-70
2022/11/07 09:59:55;;;;;;;3.20;1.38;;;13.60;97.20;;;;;;1679304;29;20205;-70
2022/11/07 10:00:46;;;;;;;4.45;1.85;;;13.60;97.20;;;;;;1679114;29;21386;-70
2022/11/07 10:01:37;;;;;;;4.83;1.40;;;13.60;97.20;;;;;;1679387;29;20678;-73
2022/11/07 10:02:31;;;;;;;5.03;1.73;;;13.60;97.20;;;;;;1679905;29;20209;-73
2022/11/07 10:03:23;;;;;;;4.93;1.60;;;13.60;97.20;;;;;;1679428;29;20257;-72
2022/11/07 10:04:16;;;;;;;2.65;1.67;;;13.60;97.20;;;;;;1679639;29;20208;-72
2022/11/07 10:05:15;;;;;;;4.80;1.55;;;13.60;97.20;;;;;;1679173;29;20201;-72
2022/11/07 10:06:15;;;;;;;8.65;1.52;;;13.60;97.20;;;;;;1679029;29;20201;-72
2022/11/07 10:07:14;;;;;;;3.00;1.63;;;13.60;97.20;;;;;;1678948;29;20205;-70
2022/11/07 10:08:10;;;;;;;4.00;1.27;;;13.60;97.20;;;;;;1679293;29;20225;-70
2022/11/07 10:09:14;;;;;;;3.28;1.95;;;13.60;97.20;;;;;;1679266;29;20217;-70
2022/11/07 10:10:13;;;;;;;5.63;1.20;;;13.60;97.20;;;;;;1679362;29;20229;-71
2022/11/07 10:11:11;;;;;;;3.78;1.42;;;13.60;97.20;;;;;;1678904;29;20197;-69
2022/11/07 10:12:13;;;;;;;3.15;1.80;;;13.60;97.20;;;;;;1679047;29;20209;-70
2022/11/07 10:13:31;;;;;;;2.63;1.38;;;13.60;97.20;;;;;;1679005;29;20235;-70
2022/11/07 10:14:33;;;;;;;4.40;1.77;;;13.60;97.20;;;;;;1679120;29;20212;-70
2022/11/07 10:15:29;;;;;;;2.67;1.40;;;13.60;97.20;;;;;;1679180;29;20211;-70
2022/11/07 10:16:29;;;;;;;2.35;1.50;;;13.60;97.20;;;;;;1679097;29;20242;-70
2022/11/07 10:17:27;;;;;;;2.30;1.30;;;13.60;97.20;;;;;;1679537;29;20205;-71
2022/11/07 10:18:28;;;;;;;4.80;1.92;;;13.60;97.20;;;;;;1679162;29;20237;-70
2022/11/07 10:19:29;;;;;;;5.43;1.60;;;13.60;97.20;;;;;;1679120;29;20201;-71
2022/11/07 10:20:35;;;;;;;3.28;1.58;;;13.70;97.20;;;;;;1679304;29;20483;-70
2022/11/07 10:21:34;;;;;;;4.97;1.70;;;13.70;97.20;;;;;;1678949;29;20220;-72
2022/11/07 10:22:41;;;;;;;4.35;1.80;;;13.70;97.20;;;;;;1678973;29;20380;-73
2022/11/07 10:23:52;;;;;;;5.38;2.35;;;13.60;97.20;;;;;;1679690;29;20212;-72
2022/11/07 10:25:04;;;;;;;5.63;2.80;;;13.70;97.20;;;;;;1679308;29;20193;-72
2022/11/07 10:26:02;;;;;;;4.47;2.15;;;13.70;97.20;;;;;;1679164;29;20228;-72
2022/11/07 10:26:56;;;;;;;6.82;2.47;;;13.70;97.20;;;;;;1679007;29;20228;-72
2022/11/07 10:27:53;;;;;;;3.70;2.42;;;13.70;97.20;;;;;;1678853;29;20583;-70
2022/11/07 10:28:48;;;;;;;7.22;3.33;;;13.70;97.20;;;;;;1678922;29;20213;-70
2022/11/07 10:29:45;;;;;;;4.20;2.30;;;13.70;97.20;;;;;;1678979;29;20217;-70
2022/11/07 10:30:38;;;;;;;8.80;2.95;;;13.70;97.20;;;;;;1678985;29;20264;-70
2022/11/07 10:31:35;;;;;;;3.58;2.28;;;13.70;97.20;;;;;;1679192;29;20591;-70
2022/11/07 10:32:36;;;;;;;4.07;1.95;;;13.70;97.20;;;;;;1679216;29;20574;-70
2022/11/07 10:33:38;;;;;;;3.80;1.40;;;13.70;97.20;;;;;;1679137;29;20269;-70
2022/11/07 10:34:34;;;;;;;4.38;2.05;;;13.70;97.20;;;;;;1678706;29;20204;-70
2022/11/07 10:35:30;;;;;;;2.35;1.33;;;13.80;97.20;;;;;;1679060;29;20675;-70
2022/11/07 10:36:23;;;;;;;3.92;1.40;;;13.80;97.20;;;;;;1679327;29;20224;-71